Saint Leon, Idaho
Current Conditions -  °F | °C
As of 6:53 AM on Saturday 25 Oct 2014 (Local Time) from KIDA Reporting Station
Clear Clear  
Wind Chill: 29°   Ceiling: Unl
Heat Index: 35°   Visibility: 10mi
Dew Point: 28°   Wind: 7mph
Humidity: 76%   Direction: 360°N
Pressure: 30.05"   Gusts: NA
Location:  43.498°N, 111.73°W
Report Text: KIDA 251253Z 36006KT 10SM CLR 02/M02 A3005 RMK AO2 SLP164 T00171022
Loading
Personal Weather Stations






























Interactive Weather Map
Tropical Storm Tracking
New forecast layout! Learn more

10-Day Weather Forecast

Advertisements
Track Severe Weather on mobile